createdAt,value
2019-06-26T00:01:30.128Z,1002
2019-06-26T00:08:02.084Z,1002
2019-06-26T00:13:43.804Z,1002
2019-06-26T00:19:50.696Z,1002
2019-06-26T00:30:58.961Z,1002
2019-06-26T00:37:40.970Z,1002
2019-06-26T00:43:12.599Z,1003
2019-06-26T00:49:24.464Z,1003
2019-06-26T00:54:25.963Z,1002
2019-06-26T01:04:13.905Z,1003
2019-06-26T01:12:26.345Z,1003
2019-06-26T01:17:58.003Z,1003
2019-06-26T01:24:09.882Z,1003
2019-06-26T01:30:31.846Z,1003
2019-06-26T01:38:54.355Z,1003
2019-06-26T01:46:11.487Z,1003
2019-06-26T01:53:08.553Z,1003
2019-06-26T02:00:05.692Z,1003
2019-06-26T02:07:17.849Z,1003
2019-06-26T02:12:54.460Z,1003
2019-06-26T02:18:56.298Z,1003
2019-06-26T02:28:13.984Z,1003
2019-06-26T02:37:11.702Z,1003
2019-06-26T02:45:34.137Z,1003
2019-06-26T02:50:55.854Z,1003
2019-06-26T02:58:33.120Z,1003
2019-06-26T03:05:25.163Z,1003
2019-06-26T03:11:21.913Z,1003
2019-06-26T03:22:30.230Z,1003
2019-06-26T03:28:57.106Z,1003
2019-06-26T03:40:05.491Z,1003
2019-06-26T03:53:19.538Z,1003
2019-06-26T03:59:56.475Z,1004
2019-06-26T04:05:48.264Z,1004
2019-06-26T04:14:40.862Z,1004
2019-06-26T04:20:42.662Z,1004
2019-06-26T04:27:44.700Z,1004
2019-06-26T04:37:47.755Z,1004
2019-06-26T04:46:35.303Z,1004
2019-06-26T04:53:12.336Z,1004
2019-06-26T05:04:20.608Z,1004
2019-06-26T05:10:47.548Z,1004
2019-06-26T05:19:50.261Z,1004
2019-06-26T05:29:02.988Z,1004
2019-06-26T05:36:05.118Z,1004
2019-06-26T05:42:57.201Z,1004
2019-06-26T05:48:33.893Z,1004
2019-06-26T05:54:35.661Z,1004
2019-06-26T06:05:08.861Z,1004
2019-06-26T06:11:00.572Z,1004
2019-06-26T06:22:03.870Z,1004
2019-06-26T06:27:55.617Z,1004
2019-06-26T06:34:47.613Z,1005
2019-06-26T06:41:09.808Z,1005
2019-06-26T06:48:06.646Z,1005
2019-06-26T06:54:38.584Z,1005
2019-06-26T07:00:10.201Z,1005
2019-06-26T07:06:42.214Z,1005
2019-06-26T07:14:09.525Z,1005
2019-06-26T07:20:21.301Z,1005
2019-06-26T07:41:52.840Z,1005
2019-06-26T07:49:50.175Z,1005
2019-06-26T07:55:41.942Z,1005
2019-06-26T08:04:49.710Z,1005
2019-06-26T08:12:32.022Z,1005
2019-06-26T08:18:00.796Z,1005
2019-06-26T08:27:16.377Z,1005
2019-06-26T08:32:38.115Z,1005
2019-06-26T08:39:20.061Z,1005
2019-06-26T08:49:25.846Z,1005
2019-06-26T08:54:34.653Z,1005
2019-06-26T09:03:17.277Z,1005
2019-06-26T09:10:59.533Z,1005
2019-06-26T09:16:31.336Z,1005
2019-06-26T09:25:21.875Z,1005
2019-06-26T09:35:06.970Z,1005
2019-06-26T09:40:43.579Z,1005
2019-06-26T09:47:40.689Z,1005
2019-06-26T09:54:37.762Z,1005
2019-06-26T10:01:09.715Z,1005
2019-06-26T10:09:22.244Z,1005
2019-06-26T10:17:29.668Z,1005
2019-06-26T10:24:36.833Z,1005
2019-06-26T10:30:38.602Z,1005
2019-06-26T10:36:40.375Z,1005
2019-06-26T10:44:57.893Z,1005
2019-06-26T10:53:40.521Z,1005
2019-06-26T11:02:48.348Z,1006
2019-06-26T11:09:30.308Z,1005
2019-06-26T11:20:08.555Z,1005
2019-06-26T11:32:12.197Z,1005
2019-06-26T11:38:08.993Z,1005
2019-06-26T11:46:16.461Z,1005
2019-06-26T11:51:28.013Z,1005
2019-06-26T11:57:40.025Z,1005
2019-06-26T12:03:36.684Z,1005
2019-06-26T12:11:24.010Z,1005
2019-06-26T12:17:40.915Z,1005
2019-06-26T12:23:17.614Z,1005
2019-06-26T12:28:29.248Z,1005
2019-06-26T12:40:37.852Z,1005
2019-06-26T12:46:44.749Z,1005
2019-06-26T12:53:16.748Z,1005
2019-06-26T13:00:28.953Z,1005
2019-06-26T13:07:15.812Z,1005
2019-06-26T13:14:17.979Z,1005
2019-06-26T13:22:35.487Z,1005
2019-06-26T13:28:57.427Z,1005
2019-06-26T13:35:24.108Z,1005
2019-06-26T13:41:11.181Z,1005
2019-06-26T13:48:28.255Z,1005
2019-06-26T13:55:40.476Z,1005
2019-06-26T14:01:07.331Z,1005
2019-06-26T14:07:29.033Z,1005
2019-06-26T14:14:01.123Z,1005
2019-06-26T14:20:32.968Z,1005
2019-06-26T14:31:11.147Z,1005
2019-06-26T14:40:39.133Z,1005
2019-06-26T14:47:20.997Z,1005
2019-06-26T14:56:13.700Z,1005
2019-06-26T15:04:01.358Z,1005
2019-06-26T15:10:28.235Z,1005
2019-06-26T15:15:54.965Z,1005
2019-06-26T15:21:14.850Z,1005.077
2019-06-26T15:29:52.504Z,1004.84
2019-06-26T15:35:13.817Z,1004.827
2019-06-26T15:40:25.617Z,1004.761
2019-06-26T15:49:33.129Z,1004.74
2019-06-26T15:56:20.237Z,1004.765
2019-06-26T16:02:01.863Z,1004.764
2019-06-26T16:07:13.439Z,1004.852
2019-06-26T16:14:40.715Z,1004.767
2019-06-26T16:19:47.250Z,1004.783
2019-06-26T16:25:39.030Z,1005.015
2019-06-26T16:38:07.782Z,1005.066
2019-06-26T16:45:35.017Z,1004.969
2019-06-26T16:51:56.936Z,1005.02
2019-06-26T16:58:08.881Z,1005.058
2019-06-26T17:04:00.654Z,1005.156
2019-06-26T17:10:32.516Z,1005.195
2019-06-26T17:18:34.995Z,1005.249
2019-06-26T17:29:03.291Z,1005.131
2019-06-26T17:35:30.057Z,1005.099
2019-06-26T17:42:42.226Z,1005.238
2019-06-26T17:51:19.816Z,1005.215
2019-06-26T17:57:41.720Z,1004.998
2019-06-26T18:03:43.554Z,1005.028
2019-06-26T18:08:50.089Z,1005.048
2019-06-26T18:15:52.195Z,1005.067
2019-06-26T18:22:29.189Z,1005.106
2019-06-26T18:34:17.737Z,1005.274
2019-06-26T18:39:19.257Z,1005.286
2019-06-26T18:46:01.334Z,1005.326
2019-06-26T18:52:58.357Z,1005.201
2019-06-26T18:58:55.103Z,1005.353
2019-06-26T19:05:52.225Z,1005.504
2019-06-26T19:13:39.613Z,1005.421
2019-06-26T19:19:16.240Z,1005.469
2019-06-26T19:29:59.415Z,1005.558
2019-06-26T19:35:07.823Z,1005.59
2019-06-26T19:42:58.384Z,1005.814
2019-06-26T19:48:09.992Z,1005.894
2019-06-26T19:53:31.561Z,1005.933
2019-06-26T19:58:58.189Z,1005.816
2019-06-26T20:04:24.908Z,1005.857
2019-06-26T20:10:51.823Z,1005.939
2019-06-26T20:16:18.472Z,1006.17
2019-06-26T20:24:43.246Z,1006.256
2019-06-26T20:34:13.758Z,1006.178
2019-06-26T20:47:02.591Z,1006.491
2019-06-26T20:56:35.461Z,1006.539
2019-06-26T21:10:14.580Z,1006.743
2019-06-26T21:16:36.453Z,1006.644
2019-06-26T21:24:58.962Z,1006.819
2019-06-26T21:38:28.116Z,1006.879
2019-06-26T21:45:25.072Z,1006.894
2019-06-26T21:51:01.766Z,1006.857
2019-06-26T22:00:59.770Z,1007.005
2019-06-26T22:09:52.414Z,1006.918
2019-06-26T22:16:34.391Z,1006.903
2019-06-26T22:22:46.265Z,1006.89
2019-06-26T22:28:38.036Z,1007.07
2019-06-26T22:37:05.568Z,1007.073
2019-06-26T22:48:08.844Z,1007.16
2019-06-26T22:56:07.883Z,1007.218
2019-06-26T23:02:08.063Z,1007.257
2019-06-26T23:09:30.255Z,1007.286
2019-06-26T23:16:37.356Z,1007.168
2019-06-26T23:23:19.411Z,1007.2
2019-06-26T23:28:36.034Z,1007.286
2019-06-26T23:34:37.758Z,1007.426
2019-06-26T23:45:15.964Z,1007.541
2019-06-26T23:58:50.012Z,1007.637
